Time,TemperatureF,DewpointF,PressureIn,WindDirection,WindDirectionDegrees,WindSpeedMPH,WindSpeedGustMPH,Humidity,HourlyPrecipIn,Conditions,Clouds,dailyrainin,SoftwareType,DateUTC
2013-02-27 00:12:00,27.0,2.0,-100.00,NNE,17,2.0,8.0,33,0.00,,,0.00,,2013-02-27 07:12:00,
2013-02-27 00:21:00,27.0,2.0,-100.00,NNE,17,2.0,8.0,33,0.00,,,0.00,,2013-02-27 07:21:00,
2013-02-27 00:32:00,27.0,2.0,-100.00,NNE,17,2.0,8.0,33,0.00,,,0.00,,2013-02-27 07:32:00,
2013-02-27 00:42:00,27.0,2.0,-100.00,NNE,17,2.0,8.0,33,0.00,,,0.00,,2013-02-27 07:42:00,
2013-02-27 00:51:00,27.0,2.0,-100.00,NNE,17,2.0,8.0,33,0.00,,,0.00,,2013-02-27 07:51:00,
2013-02-27 01:11:00,27.0,2.0,-100.00,North,357,3.0,9.0,34,0.00,,,0.00,,2013-02-27 08:11:00,
2013-02-27 01:21:00,27.0,2.0,-100.00,North,357,3.0,9.0,34,0.00,,,0.00,,2013-02-27 08:21:00,
2013-02-27 01:32:00,27.0,2.0,-100.00,North,357,3.0,9.0,34,0.00,,,0.00,,2013-02-27 08:32:00,
2013-02-27 01:41:00,27.0,2.0,-100.00,North,357,3.0,9.0,34,0.00,,,0.00,,2013-02-27 08:41:00,
2013-02-27 01:52:00,27.0,2.0,-100.00,North,357,3.0,9.0,34,0.00,,,0.00,,2013-02-27 08:52:00,
2013-02-27 02:12:00,27.0,2.0,-100.00,NNW,342,4.0,12.0,34,0.00,,,0.00,,2013-02-27 09:12:00,
2013-02-27 02:22:00,27.0,2.0,-100.00,NNW,342,4.0,12.0,34,0.00,,,0.00,,2013-02-27 09:22:00,
2013-02-27 02:32:00,27.0,2.0,-100.00,NNW,342,4.0,12.0,34,0.00,,,0.00,,2013-02-27 09:32:00,
2013-02-27 02:41:00,27.0,2.0,-100.00,NNW,342,4.0,12.0,34,0.00,,,0.00,,2013-02-27 09:41:00,
2013-02-27 02:51:00,27.0,2.0,-100.00,NNW,342,4.0,12.0,34,0.00,,,0.00,,2013-02-27 09:51:00,
2013-02-27 03:12:00,21.0,1.0,-100.00,NE,51,2.0,6.0,41,0.00,,,0.00,,2013-02-27 10:12:00,
2013-02-27 03:22:00,21.0,1.0,-100.00,NE,51,2.0,6.0,41,0.00,,,0.00,,2013-02-27 10:22:00,
2013-02-27 04:22:00,18.0,5.0,-100.00,SSE,159,1.0,4.0,55,0.00,,,0.00,,2013-02-27 11:22:00,
2013-02-27 05:22:00,14.0,4.0,-100.00,NNE,16,1.0,2.0,65,-99.99,,,0.00,,2013-02-27 12:22:00,
2013-02-27 06:22:00,14.0,6.0,-100.00,West,281,1.0,3.0,69,-99.99,,,0.00,,2013-02-27 13:22:00,
2013-02-27 07:22:00,12.0,4.0,-100.00,SW,234,1.0,3.0,69,-99.99,,,0.00,,2013-02-27 14:22:00,
2013-02-27 08:12:00,28.0,15.0,-100.00,South,182,1.0,3.0,57,-99.99,,,0.00,,2013-02-27 15:12:00,
2013-02-27 08:22:00,28.0,15.0,-100.00,South,182,1.0,3.0,57,-99.99,,,0.00,,2013-02-27 15:22:00,
2013-02-27 08:32:00,28.0,15.0,-100.00,South,182,1.0,3.0,57,-99.99,,,0.00,,2013-02-27 15:32:00,
2013-02-27 08:42:00,28.0,15.0,-100.00,South,182,1.0,3.0,57,-99.99,,,0.00,,2013-02-27 15:42:00,
2013-02-27 08:52:00,28.0,15.0,-100.00,South,182,1.0,3.0,57,-99.99,,,0.00,,2013-02-27 15:52:00,
2013-02-27 09:12:00,33.0,8.0,-100.00,ESE,116,2.0,5.0,34,0.00,,,0.00,,2013-02-27 16:12:00,
2013-02-27 09:22:00,33.0,8.0,-100.00,ESE,116,2.0,5.0,34,0.00,,,0.00,,2013-02-27 16:22:00,
2013-02-27 09:32:00,33.0,8.0,-100.00,ESE,116,2.0,5.0,34,0.00,,,0.00,,2013-02-27 16:32:00,
2013-02-27 09:42:00,33.0,8.0,-100.00,ESE,116,2.0,5.0,34,0.00,,,0.00,,2013-02-27 16:42:00,
2013-02-27 09:52:00,33.0,8.0,-100.00,ESE,116,2.0,5.0,34,0.00,,,0.00,,2013-02-27 16:52:00,
2013-02-27 10:21:00,34.0,7.0,-100.00,East,86,3.0,6.0,31,0.00,,,0.00,,2013-02-27 17:21:00,
2013-02-27 10:32:00,34.0,7.0,-100.00,East,86,3.0,6.0,31,0.00,,,0.00,,2013-02-27 17:32:00,
2013-02-27 10:42:00,34.0,7.0,-100.00,East,86,3.0,6.0,31,0.00,,,0.00,,2013-02-27 17:42:00,
2013-02-27 10:52:00,34.0,7.0,-100.00,East,86,3.0,6.0,31,0.00,,,0.00,,2013-02-27 17:52:00,
2013-02-27 11:11:00,38.0,7.0,-100.00,NNW,340,3.0,12.0,27,0.00,,,-99.99,,2013-02-27 18:11:00,
2013-02-27 11:22:00,38.0,7.0,-100.00,NNW,340,3.0,12.0,27,0.00,,,-99.99,,2013-02-27 18:22:00,
2013-02-27 11:32:00,38.0,7.0,-100.00,NNW,340,3.0,12.0,27,0.00,,,-99.99,,2013-02-27 18:32:00,
2013-02-27 11:42:00,38.0,7.0,-100.00,NNW,340,3.0,12.0,27,0.00,,,-99.99,,2013-02-27 18:42:00,
2013-02-27 11:51:00,38.0,7.0,-100.00,NNW,340,3.0,12.0,27,0.00,,,-99.99,,2013-02-27 18:51:00,
2013-02-27 12:21:00,43.0,8.0,-100.00,West,266,3.0,9.0,23,0.00,,,0.00,,2013-02-27 19:21:00,
2013-02-27 12:32:00,43.0,8.0,-100.00,West,266,3.0,9.0,23,0.00,,,0.00,,2013-02-27 19:32:00,
2013-02-27 12:42:00,43.0,8.0,-100.00,West,266,3.0,9.0,23,0.00,,,0.00,,2013-02-27 19:42:00,
2013-02-27 12:52:00,43.0,8.0,-100.00,West,266,3.0,9.0,23,0.00,,,0.00,,2013-02-27 19:52:00,
2013-02-27 13:22:00,44.0,3.0,-100.00,WNW,288,4.0,9.0,18,0.00,,,0.00,,2013-02-27 20:22:00,
2013-02-27 13:32:00,44.0,3.0,-100.00,WNW,288,4.0,9.0,18,0.00,,,0.00,,2013-02-27 20:32:00,
2013-02-27 13:42:00,44.0,3.0,-100.00,WNW,288,4.0,9.0,18,0.00,,,0.00,,2013-02-27 20:42:00,
2013-02-27 13:52:00,44.0,3.0,-100.00,WNW,288,4.0,9.0,18,0.00,,,0.00,,2013-02-27 20:52:00,
2013-02-27 14:11:00,48.0,3.0,-100.00,WNW,299,4.0,12.0,15,0.00,,,-99.99,,2013-02-27 21:11:00,
2013-02-27 14:22:00,48.0,3.0,-100.00,WNW,299,4.0,12.0,15,0.00,,,-99.99,,2013-02-27 21:22:00,
2013-02-27 14:32:00,48.0,3.0,-100.00,WNW,299,4.0,12.0,15,0.00,,,-99.99,,2013-02-27 21:32:00,
2013-02-27 14:42:00,48.0,3.0,-100.00,WNW,299,4.0,12.0,15,0.00,,,-99.99,,2013-02-27 21:42:00,
2013-02-27 14:51:00,48.0,3.0,-100.00,WNW,299,4.0,12.0,15,0.00,,,-99.99,,2013-02-27 21:51:00,
2013-02-27 15:11:00,47.0,0.0,-100.00,WNW,290,4.0,11.0,14,0.00,,,0.00,,2013-02-27 22:11:00,
2013-02-27 15:21:00,47.0,0.0,-100.00,WNW,290,4.0,11.0,14,0.00,,,0.00,,2013-02-27 22:21:00,
2013-02-27 15:32:00,47.0,0.0,-100.00,WNW,290,4.0,11.0,14,0.00,,,0.00,,2013-02-27 22:32:00,
2013-02-27 15:42:00,47.0,0.0,-100.00,WNW,290,4.0,11.0,14,0.00,,,0.00,,2013-02-27 22:42:00,
2013-02-27 15:51:00,47.0,0.0,-100.00,WNW,290,4.0,11.0,14,0.00,,,0.00,,2013-02-27 22:51:00,
2013-02-27 16:21:00,47.0,0.0,-100.00,South,181,4.0,11.0,14,0.00,,,0.00,,2013-02-27 23:21:00,
2013-02-27 16:32:00,47.0,0.0,-100.00,South,181,4.0,11.0,14,0.00,,,0.00,,2013-02-27 23:32:00,
2013-02-27 16:42:00,47.0,0.0,-100.00,South,181,4.0,11.0,14,0.00,,,0.00,,2013-02-27 23:42:00,
2013-02-27 16:52:00,47.0,0.0,-100.00,South,181,4.0,11.0,14,0.00,,,0.00,,2013-02-27 23:52:00,
2013-02-27 17:12:00,46.0,-2.0,-100.00,SSW,212,3.0,8.0,13,0.00,,,0.00,,2013-02-28 00:12:00,
2013-02-27 17:21:00,46.0,-2.0,-100.00,SSW,212,3.0,8.0,13,0.00,,,0.00,,2013-02-28 00:21:00,
2013-02-27 17:32:00,46.0,-2.0,-100.00,SSW,212,3.0,8.0,13,0.00,,,0.00,,2013-02-28 00:32:00,
2013-02-27 17:42:00,46.0,-2.0,-100.00,SSW,212,3.0,8.0,13,0.00,,,0.00,,2013-02-28 00:42:00,
2013-02-27 17:51:00,46.0,-2.0,-100.00,SSW,212,3.0,8.0,13,0.00,,,0.00,,2013-02-28 00:51:00,
2013-02-27 18:22:00,39.0,-8.0,-100.00,South,176,2.0,6.0,13,0.00,,,0.00,,2013-02-28 01:22:00,
2013-02-27 19:11:00,29.0,-4.0,-100.00,South,180,0.0,3.0,23,0.00,,,0.00,,2013-02-28 02:11:00,
2013-02-27 19:22:00,29.0,-4.0,-100.00,South,180,0.0,3.0,23,0.00,,,0.00,,2013-02-28 02:22:00,
2013-02-27 20:21:00,31.0,-1.0,-100.00,West,281,2.0,9.0,25,-99.99,,,0.00,,2013-02-28 03:21:00,
2013-02-27 21:11:00,28.0,-4.0,-100.00,West,272,2.0,5.0,24,-99.99,,,0.00,,2013-02-28 04:11:00,
2013-02-27 21:21:00,28.0,-4.0,-100.00,West,272,2.0,5.0,24,-99.99,,,0.00,,2013-02-28 04:21:00,
2013-02-27 22:11:00,26.0,-9.0,-100.00,NW,317,3.0,7.0,20,-99.99,,,0.00,,2013-02-28 05:11:00,
2013-02-27 22:22:00,26.0,-9.0,-100.00,NW,317,3.0,7.0,20,-99.99,,,0.00,,2013-02-28 05:22:00,
2013-02-27 23:11:00,26.0,-5.0,-100.00,NNW,327,3.0,8.0,25,-99.99,,,0.00,,2013-02-28 06:11:00,
2013-02-27 23:22:00,26.0,-5.0,-100.00,NNW,327,3.0,8.0,25,-99.99,,,0.00,,2013-02-28 06:22:00,
2013-02-27 23:42:00,26.0,-5.0,-100.00,NNW,327,3.0,8.0,25,-99.99,,,0.00,,2013-02-28 06:42:00,
2013-02-27 23:51:00,26.0,-5.0,-100.00,NNW,327,3.0,8.0,25,-99.99,,,0.00,,2013-02-28 06:51:00,